DLH623 OEDF-OERK
Flight info
| Callsign | DLH623 |
|---|---|
| Flight time | 0h 40m |
| Altitude | 34000 |
| Route | EMUSA DCT ESRAT |
| Aircraft | B748/H-SDE3FGHIM1M2RWXY/LB1 |
Departure
| Time | 2026-04-15 14:06 |
|---|---|
| Airport | King Fahd International Airport (OEDF) |
Arrival
| Time | 2026-04-15 14:47 |
|---|---|
| Airport | King Khalid International Airport (OERK) |
| Time | Latitude | Longitude | Altitude | Speed | Heading |
|---|---|---|---|---|---|
| 2026-04-15 13:14 | 26.47142 | 49.79344 | 91 ft | 0 kts | 63° |
| 2026-04-15 13:25 | 26.47140 | 49.79339 | 93 ft | 4 kts | 60° |
| 2026-04-15 13:25 | 26.47129 | 49.79319 | 92 ft | 4 kts | 69° |
| 2026-04-15 13:25 | 26.47122 | 49.79298 | 93 ft | 0 kts | 99° |
| 2026-04-15 13:26 | 26.47148 | 49.79357 | 95 ft | 0 kts | 63° |
| 2026-04-15 13:31 | 26.47145 | 49.79351 | 95 ft | 4 kts | 63° |
| 2026-04-15 13:31 | 26.47134 | 49.79327 | 91 ft | 3 kts | 63° |
| 2026-04-15 13:31 | 26.47124 | 49.79304 | 92 ft | 4 kts | 88° |
| 2026-04-15 13:31 | 26.47123 | 49.79284 | 91 ft | 4 kts | 128° |
| 2026-04-15 13:32 | 26.47139 | 49.79266 | 91 ft | 4 kts | 153° |
| 2026-04-15 13:32 | 26.47162 | 49.79254 | 94 ft | 2 kts | 153° |
| 2026-04-15 13:32 | 26.47167 | 49.79251 | 91 ft | 0 kts | 153° |
| 2026-04-15 13:49 | 26.47164 | 49.79253 | 91 ft | 1 kts | 153° |
| 2026-04-15 13:49 | 26.47149 | 49.79262 | 94 ft | 3 kts | 153° |
| 2026-04-15 13:50 | 26.47121 | 49.79277 | 94 ft | 5 kts | 153° |
| 2026-04-15 13:50 | 26.47080 | 49.79296 | 95 ft | 7 kts | 162° |
| 2026-04-15 13:50 | 26.47049 | 49.79292 | 94 ft | 3 kts | 200° |
| 2026-04-15 13:50 | 26.47035 | 49.79280 | 95 ft | 3 kts | 221° |
| 2026-04-15 13:51 | 26.47022 | 49.79257 | 96 ft | 5 kts | 240° |
| 2026-04-15 13:51 | 26.47007 | 49.79214 | 95 ft | 7 kts | 253° |
| 2026-04-15 13:51 | 26.46992 | 49.79152 | 92 ft | 3 kts | 254° |
| 2026-04-15 13:51 | 26.46992 | 49.79151 | 92 ft | 0 kts | 254° |
| 2026-04-15 14:02 | 26.46990 | 49.79144 | 91 ft | 3 kts | 254° |
| 2026-04-15 14:02 | 26.46979 | 49.79100 | 93 ft | 8 kts | 252° |
| 2026-04-15 14:02 | 26.46948 | 49.79067 | 93 ft | 5 kts | 201° |
| 2026-04-15 14:02 | 26.46910 | 49.79068 | 95 ft | 8 kts | 172° |
| 2026-04-15 14:03 | 26.46839 | 49.79086 | 94 ft | 13 kts | 165° |
| 2026-04-15 14:03 | 26.46729 | 49.79120 | 93 ft | 19 kts | 165° |
| 2026-04-15 14:03 | 26.46587 | 49.79163 | 96 ft | 24 kts | 165° |
| 2026-04-15 14:03 | 26.46411 | 49.79218 | 94 ft | 28 kts | 165° |
| 2026-04-15 14:04 | 26.46213 | 49.79279 | 95 ft | 30 kts | 164° |
| 2026-04-15 14:04 | 26.46000 | 49.79344 | 94 ft | 33 kts | 164° |
| 2026-04-15 14:04 | 26.45777 | 49.79413 | 94 ft | 33 kts | 164° |
| 2026-04-15 14:04 | 26.45593 | 49.79471 | 96 ft | 22 kts | 164° |
| 2026-04-15 14:05 | 26.45468 | 49.79463 | 92 ft | 15 kts | 228° |
| 2026-04-15 14:05 | 26.45437 | 49.79363 | 94 ft | 13 kts | 257° |
| 2026-04-15 14:05 | 26.45420 | 49.79271 | 95 ft | 12 kts | 265° |
| 2026-04-15 14:05 | 26.45455 | 49.79195 | 94 ft | 12 kts | 321° |
| 2026-04-15 14:06 | 26.45551 | 49.79159 | 93 ft | 26 kts | 345° |
| 2026-04-15 14:06 | 26.45989 | 49.79020 | 94 ft | 111 kts | 344° |
| 2026-04-15 14:06 | 26.47021 | 49.78698 | 215 ft | 185 kts | 342° |
| 2026-04-15 14:06 | 26.48232 | 49.78298 | 1286 ft | 175 kts | 345° |
| 2026-04-15 14:07 | 26.49432 | 49.77937 | 2048 ft | 192 kts | 343° |
| 2026-04-15 14:07 | 26.50823 | 49.77525 | 2441 ft | 223 kts | 343° |
| 2026-04-15 14:07 | 26.52420 | 49.77034 | 3191 ft | 242 kts | 343° |
| 2026-04-15 14:07 | 26.54092 | 49.76514 | 3871 ft | 254 kts | 342° |
| 2026-04-15 14:08 | 26.55648 | 49.75677 | 3974 ft | 249 kts | 323° |
| 2026-04-15 14:08 | 26.56808 | 49.74270 | 3981 ft | 247 kts | 302° |
| 2026-04-15 14:08 | 26.57422 | 49.72453 | 4147 ft | 261 kts | 281° |
| 2026-04-15 14:08 | 26.57420 | 49.70489 | 5776 ft | 254 kts | 266° |
| 2026-04-15 14:09 | 26.56818 | 49.68537 | 6717 ft | 276 kts | 251° |
| 2026-04-15 14:09 | 26.56024 | 49.66561 | 7809 ft | 281 kts | 250° |
| 2026-04-15 14:09 | 26.55218 | 49.64545 | 8910 ft | 288 kts | 250° |
| 2026-04-15 14:09 | 26.54404 | 49.62475 | 9975 ft | 295 kts | 249° |
| 2026-04-15 14:10 | 26.53573 | 49.60362 | 11022 ft | 298 kts | 249° |
| 2026-04-15 14:10 | 26.52731 | 49.58233 | 12081 ft | 301 kts | 249° |
| 2026-04-15 14:10 | 26.51878 | 49.56077 | 13107 ft | 305 kts | 249° |
| 2026-04-15 14:10 | 26.51018 | 49.53901 | 14095 ft | 308 kts | 249° |
| 2026-04-15 14:11 | 26.50440 | 49.52438 | 14663 ft | 312 kts | 249° |
| 2026-04-15 14:11 | 26.49559 | 49.50213 | 15495 ft | 316 kts | 249° |
| 2026-04-15 14:11 | 26.48665 | 49.47953 | 16340 ft | 321 kts | 249° |
| 2026-04-15 14:11 | 26.47757 | 49.45662 | 17181 ft | 325 kts | 249° |
| 2026-04-15 14:12 | 26.46836 | 49.43338 | 17996 ft | 330 kts | 249° |
| 2026-04-15 14:12 | 26.45902 | 49.40983 | 18736 ft | 334 kts | 249° |
| 2026-04-15 14:12 | 26.44955 | 49.38598 | 19420 ft | 339 kts | 249° |
| 2026-04-15 14:12 | 26.43997 | 49.36184 | 20119 ft | 342 kts | 250° |
| 2026-04-15 14:13 | 26.43029 | 49.33745 | 20807 ft | 346 kts | 250° |
| 2026-04-15 14:13 | 26.42046 | 49.31273 | 21466 ft | 350 kts | 250° |
| 2026-04-15 14:13 | 26.41051 | 49.28773 | 22121 ft | 355 kts | 251° |
| 2026-04-15 14:13 | 26.40022 | 49.26177 | 22231 ft | 377 kts | 250° |
| 2026-04-15 14:14 | 26.38934 | 49.23433 | 22326 ft | 397 kts | 250° |
| 2026-04-15 14:14 | 26.37802 | 49.20615 | 23082 ft | 399 kts | 250° |
| 2026-04-15 14:14 | 26.36663 | 49.17768 | 23679 ft | 404 kts | 251° |
| 2026-04-15 14:14 | 26.35517 | 49.14889 | 24268 ft | 406 kts | 251° |
| 2026-04-15 14:15 | 26.34370 | 49.12013 | 24858 ft | 409 kts | 251° |
| 2026-04-15 14:15 | 26.33208 | 49.09108 | 25445 ft | 410 kts | 251° |
| 2026-04-15 14:15 | 26.32042 | 49.06196 | 26023 ft | 412 kts | 251° |
| 2026-04-15 14:15 | 26.30873 | 49.03273 | 26583 ft | 415 kts | 251° |
| 2026-04-15 14:16 | 26.29695 | 49.00330 | 27151 ft | 417 kts | 251° |
| 2026-04-15 14:16 | 26.28508 | 48.97369 | 27707 ft | 419 kts | 251° |
| 2026-04-15 14:16 | 26.27316 | 48.94397 | 28271 ft | 421 kts | 251° |
| 2026-04-15 14:16 | 26.26119 | 48.91416 | 28814 ft | 423 kts | 252° |
| 2026-04-15 14:17 | 26.24913 | 48.88413 | 29371 ft | 426 kts | 252° |
| 2026-04-15 14:17 | 26.23701 | 48.85396 | 29914 ft | 428 kts | 252° |
| 2026-04-15 14:17 | 26.22481 | 48.82364 | 30379 ft | 430 kts | 252° |
| 2026-04-15 14:17 | 26.21269 | 48.79353 | 30801 ft | 433 kts | 252° |
| 2026-04-15 14:18 | 26.20036 | 48.76292 | 31251 ft | 435 kts | 251° |
| 2026-04-15 14:18 | 26.18810 | 48.73208 | 31638 ft | 435 kts | 255° |
| 2026-04-15 14:18 | 26.17947 | 48.69961 | 32053 ft | 430 kts | 263° |
| 2026-04-15 14:18 | 26.17332 | 48.66732 | 32424 ft | 433 kts | 263° |
| 2026-04-15 14:19 | 26.16707 | 48.63445 | 32803 ft | 436 kts | 263° |
| 2026-04-15 14:19 | 26.16076 | 48.60134 | 33177 ft | 438 kts | 263° |
| 2026-04-15 14:19 | 26.15440 | 48.56811 | 33555 ft | 440 kts | 263° |
| 2026-04-15 14:19 | 26.14801 | 48.53472 | 33901 ft | 443 kts | 263° |
| 2026-04-15 14:20 | 26.14156 | 48.50099 | 34022 ft | 450 kts | 263° |
| 2026-04-15 14:20 | 26.12821 | 48.43137 | 34053 ft | 470 kts | 263° |
| 2026-04-15 14:21 | 26.11423 | 48.35882 | 34048 ft | 488 kts | 263° |
| 2026-04-15 14:21 | 26.09990 | 48.28472 | 34052 ft | 492 kts | 262° |
| 2026-04-15 14:22 | 26.08550 | 48.21035 | 34051 ft | 491 kts | 262° |
| 2026-04-15 14:22 | 26.07110 | 48.13615 | 34054 ft | 490 kts | 262° |
| 2026-04-15 14:23 | 26.05667 | 48.06207 | 34053 ft | 490 kts | 262° |
| 2026-04-15 14:23 | 26.04220 | 47.98796 | 34056 ft | 490 kts | 262° |
| 2026-04-15 14:24 | 26.02773 | 47.91407 | 34055 ft | 489 kts | 262° |
| 2026-04-15 14:24 | 26.01340 | 47.84126 | 33489 ft | 475 kts | 262° |
| 2026-04-15 14:24 | 26.00639 | 47.80552 | 32834 ft | 472 kts | 262° |
| 2026-04-15 14:25 | 25.99939 | 47.76989 | 32180 ft | 470 kts | 262° |
| 2026-04-15 14:25 | 25.99248 | 47.73493 | 31523 ft | 470 kts | 262° |
| 2026-04-15 14:25 | 25.98538 | 47.69902 | 30858 ft | 470 kts | 262° |
| 2026-04-15 14:25 | 25.97836 | 47.66348 | 30151 ft | 472 kts | 262° |
| 2026-04-15 14:26 | 25.97229 | 47.63282 | 29512 ft | 474 kts | 261° |
| 2026-04-15 14:26 | 25.96519 | 47.59706 | 28799 ft | 474 kts | 261° |
| 2026-04-15 14:26 | 25.95801 | 47.56099 | 28073 ft | 470 kts | 261° |
| 2026-04-15 14:26 | 25.95109 | 47.52623 | 27384 ft | 467 kts | 261° |
| 2026-04-15 14:27 | 25.94416 | 47.49138 | 26680 ft | 463 kts | 261° |
| 2026-04-15 14:27 | 25.93725 | 47.45669 | 25979 ft | 460 kts | 261° |
| 2026-04-15 14:27 | 25.93033 | 47.42208 | 25288 ft | 460 kts | 260° |
| 2026-04-15 14:27 | 25.92340 | 47.38739 | 24573 ft | 460 kts | 260° |
| 2026-04-15 14:28 | 25.91646 | 47.35271 | 23855 ft | 460 kts | 260° |
| 2026-04-15 14:28 | 25.90953 | 47.31819 | 23093 ft | 457 kts | 259° |
| 2026-04-15 14:28 | 25.90263 | 47.28388 | 22367 ft | 452 kts | 259° |
| 2026-04-15 14:28 | 25.89582 | 47.24999 | 21648 ft | 447 kts | 259° |
| 2026-04-15 14:29 | 25.88908 | 47.21649 | 20945 ft | 442 kts | 259° |
| 2026-04-15 14:29 | 25.88239 | 47.18326 | 20232 ft | 438 kts | 259° |
| 2026-04-15 14:29 | 25.87576 | 47.15042 | 19524 ft | 434 kts | 259° |
| 2026-04-15 14:29 | 25.86920 | 47.11796 | 18820 ft | 430 kts | 259° |
| 2026-04-15 14:30 | 25.86267 | 47.08564 | 18076 ft | 427 kts | 259° |
| 2026-04-15 14:30 | 25.85529 | 47.05392 | 17366 ft | 422 kts | 251° |
| 2026-04-15 14:30 | 25.84254 | 47.02506 | 16964 ft | 413 kts | 241° |
| 2026-04-15 14:30 | 25.82762 | 46.99820 | 16652 ft | 409 kts | 239° |
| 2026-04-15 14:31 | 25.81220 | 46.97135 | 16331 ft | 414 kts | 239° |
| 2026-04-15 14:31 | 25.79670 | 46.94442 | 16011 ft | 413 kts | 239° |
| 2026-04-15 14:31 | 25.78138 | 46.91768 | 15768 ft | 407 kts | 237° |
| 2026-04-15 14:31 | 25.76254 | 46.89468 | 15620 ft | 399 kts | 220° |
| 2026-04-15 14:32 | 25.73976 | 46.87837 | 15611 ft | 380 kts | 207° |
| 2026-04-15 14:32 | 25.71590 | 46.86780 | 15580 ft | 360 kts | 202° |
| 2026-04-15 14:32 | 25.69306 | 46.85852 | 15506 ft | 337 kts | 202° |
| 2026-04-15 14:32 | 25.67156 | 46.84959 | 15261 ft | 328 kts | 203° |
| 2026-04-15 14:33 | 25.65037 | 46.84062 | 15069 ft | 324 kts | 203° |
| 2026-04-15 14:33 | 25.62933 | 46.83180 | 14644 ft | 323 kts | 203° |
| 2026-04-15 14:33 | 25.60836 | 46.82310 | 14267 ft | 321 kts | 203° |
| 2026-04-15 14:33 | 25.58756 | 46.81445 | 13887 ft | 318 kts | 203° |
| 2026-04-15 14:34 | 25.56694 | 46.80583 | 13446 ft | 316 kts | 203° |
| 2026-04-15 14:34 | 25.54642 | 46.79727 | 13031 ft | 313 kts | 203° |
| 2026-04-15 14:34 | 25.52609 | 46.78880 | 12614 ft | 311 kts | 203° |
| 2026-04-15 14:34 | 25.50587 | 46.78039 | 12188 ft | 309 kts | 202° |
| 2026-04-15 14:35 | 25.48588 | 46.77207 | 11768 ft | 307 kts | 202° |
| 2026-04-15 14:35 | 25.46593 | 46.76377 | 11352 ft | 305 kts | 202° |
| 2026-04-15 14:35 | 25.44621 | 46.75557 | 10941 ft | 303 kts | 202° |
| 2026-04-15 14:35 | 25.42680 | 46.74749 | 10522 ft | 301 kts | 202° |
| 2026-04-15 14:36 | 25.40668 | 46.74022 | 10099 ft | 300 kts | 189° |
| 2026-04-15 14:36 | 25.38626 | 46.74132 | 9668 ft | 300 kts | 163° |
| 2026-04-15 14:36 | 25.36750 | 46.75097 | 9214 ft | 298 kts | 151° |
| 2026-04-15 14:36 | 25.34959 | 46.76248 | 8795 ft | 296 kts | 149° |
| 2026-04-15 14:37 | 25.33199 | 46.77402 | 8362 ft | 293 kts | 150° |
| 2026-04-15 14:37 | 25.31360 | 46.78237 | 8194 ft | 279 kts | 173° |
| 2026-04-15 14:37 | 25.29556 | 46.78082 | 8124 ft | 247 kts | 202° |
| 2026-04-15 14:37 | 25.28097 | 46.77174 | 7601 ft | 242 kts | 223° |
| 2026-04-15 14:38 | 25.27024 | 46.75764 | 7162 ft | 239 kts | 242° |
| 2026-04-15 14:38 | 25.26463 | 46.74061 | 6766 ft | 236 kts | 263° |
| 2026-04-15 14:38 | 25.26474 | 46.72264 | 6368 ft | 235 kts | 283° |
| 2026-04-15 14:38 | 25.26989 | 46.70565 | 6010 ft | 231 kts | 287° |
| 2026-04-15 14:39 | 25.27217 | 46.68845 | 6017 ft | 226 kts | 269° |
| 2026-04-15 14:39 | 25.26953 | 46.67180 | 6013 ft | 216 kts | 249° |
| 2026-04-15 14:39 | 25.26352 | 46.65674 | 6025 ft | 214 kts | 244° |
| 2026-04-15 14:39 | 25.25691 | 46.64211 | 6040 ft | 212 kts | 243° |
| 2026-04-15 14:40 | 25.25021 | 46.62754 | 6040 ft | 212 kts | 243° |
| 2026-04-15 14:40 | 25.24353 | 46.61300 | 6029 ft | 213 kts | 243° |
| 2026-04-15 14:40 | 25.23686 | 46.59843 | 6024 ft | 213 kts | 243° |
| 2026-04-15 14:40 | 25.23018 | 46.58380 | 6019 ft | 213 kts | 243° |
| 2026-04-15 14:41 | 25.22293 | 46.56964 | 6021 ft | 213 kts | 231° |
| 2026-04-15 14:41 | 25.21203 | 46.55865 | 6018 ft | 213 kts | 211° |
| 2026-04-15 14:41 | 25.19841 | 46.55252 | 6024 ft | 212 kts | 191° |
| 2026-04-15 14:41 | 25.18380 | 46.55049 | 6030 ft | 212 kts | 184° |
| 2026-04-15 14:42 | 25.16910 | 46.55044 | 5997 ft | 212 kts | 164° |
| 2026-04-15 14:42 | 25.15592 | 46.55732 | 6006 ft | 212 kts | 151° |
| 2026-04-15 14:42 | 25.14305 | 46.56528 | 5762 ft | 207 kts | 149° |
| 2026-04-15 14:42 | 25.13098 | 46.57300 | 5493 ft | 192 kts | 149° |
| 2026-04-15 14:43 | 25.11984 | 46.58014 | 5250 ft | 179 kts | 149° |
| 2026-04-15 14:43 | 25.10933 | 46.58683 | 5032 ft | 169 kts | 149° |
| 2026-04-15 14:43 | 25.09930 | 46.59322 | 4847 ft | 166 kts | 149° |
| 2026-04-15 14:43 | 25.08933 | 46.59956 | 4644 ft | 166 kts | 149° |
| 2026-04-15 14:44 | 25.07934 | 46.60591 | 4443 ft | 165 kts | 149° |
| 2026-04-15 14:44 | 25.06956 | 46.61213 | 4230 ft | 164 kts | 149° |
| 2026-04-15 14:44 | 25.05967 | 46.61842 | 4028 ft | 164 kts | 149° |
| 2026-04-15 14:44 | 25.04990 | 46.62471 | 3822 ft | 163 kts | 148° |
| 2026-04-15 14:45 | 25.04007 | 46.63092 | 3622 ft | 162 kts | 149° |
| 2026-04-15 14:45 | 25.03033 | 46.63708 | 3416 ft | 161 kts | 149° |
| 2026-04-15 14:45 | 25.02072 | 46.64331 | 3203 ft | 160 kts | 149° |
| 2026-04-15 14:45 | 25.01112 | 46.64937 | 2994 ft | 159 kts | 149° |
| 2026-04-15 14:46 | 25.00154 | 46.65541 | 2775 ft | 158 kts | 149° |
| 2026-04-15 14:46 | 24.99206 | 46.66144 | 2548 ft | 157 kts | 148° |
| 2026-04-15 14:46 | 24.98260 | 46.66754 | 2318 ft | 157 kts | 148° |
| 2026-04-15 14:46 | 24.97313 | 46.67356 | 2087 ft | 157 kts | 148° |
| 2026-04-15 14:47 | 24.96451 | 46.67906 | 2027 ft | 115 kts | 150° |
| 2026-04-15 14:47 | 24.95946 | 46.68220 | 2028 ft | 58 kts | 150° |
| 2026-04-15 14:47 | 24.95641 | 46.68420 | 2028 ft | 42 kts | 147° |
| 2026-04-15 14:47 | 24.95497 | 46.68594 | 2028 ft | 26 kts | 110° |
| 2026-04-15 14:48 | 24.95507 | 46.68758 | 2026 ft | 15 kts | 63° |
| 2026-04-15 14:48 | 24.95519 | 46.68783 | 2024 ft | 0 kts | 61° |
| 2026-04-15 14:48 | 24.95520 | 46.68785 | 2023 ft | 1 kts | 61° |
| 2026-04-15 14:48 | 24.95523 | 46.68789 | 2028 ft | 2 kts | 54° |
| 2026-04-15 14:49 | 24.95539 | 46.68800 | 2027 ft | 3 kts | 24° |
| 2026-04-15 14:49 | 24.95560 | 46.68798 | 2030 ft | 3 kts | 346° |
| 2026-04-15 14:49 | 24.95598 | 46.68776 | 2029 ft | 10 kts | 332° |
| 2026-04-15 14:49 | 24.95675 | 46.68728 | 2029 ft | 15 kts | 329° |
| 2026-04-15 14:50 | 24.95770 | 46.68667 | 2026 ft | 17 kts | 330° |
| 2026-04-15 14:50 | 24.95882 | 46.68597 | 2029 ft | 20 kts | 331° |
| 2026-04-15 14:50 | 24.96000 | 46.68524 | 2026 ft | 19 kts | 331° |
| 2026-04-15 14:50 | 24.96093 | 46.68551 | 2026 ft | 15 kts | 53° |
| 2026-04-15 14:51 | 24.96145 | 46.68650 | 2030 ft | 15 kts | 60° |
| 2026-04-15 14:51 | 24.96194 | 46.68746 | 2031 ft | 14 kts | 61° |
| 2026-04-15 14:51 | 24.96238 | 46.68835 | 2033 ft | 12 kts | 61° |
| 2026-04-15 14:51 | 24.96278 | 46.68913 | 2036 ft | 11 kts | 60° |
| 2026-04-15 14:52 | 24.96319 | 46.68990 | 2037 ft | 12 kts | 60° |
| 2026-04-15 14:52 | 24.96361 | 46.69072 | 2039 ft | 13 kts | 60° |
| 2026-04-15 14:52 | 24.96414 | 46.69171 | 2040 ft | 16 kts | 60° |
| 2026-04-15 14:52 | 24.96476 | 46.69291 | 2041 ft | 20 kts | 60° |
| 2026-04-15 14:53 | 24.96552 | 46.69439 | 2037 ft | 25 kts | 60° |
| 2026-04-15 14:53 | 24.96649 | 46.69620 | 2031 ft | 30 kts | 59° |
| 2026-04-15 14:53 | 24.96759 | 46.69828 | 2028 ft | 32 kts | 60° |
| 2026-04-15 14:53 | 24.96846 | 46.69994 | 2026 ft | 19 kts | 62° |
| 2026-04-15 14:54 | 24.96833 | 46.70089 | 2026 ft | 10 kts | 139° |
| 2026-04-15 14:54 | 24.96747 | 46.70141 | 2026 ft | 18 kts | 151° |
| 2026-04-15 14:54 | 24.96612 | 46.70223 | 2024 ft | 26 kts | 150° |
| 2026-04-15 14:54 | 24.96439 | 46.70334 | 2026 ft | 31 kts | 149° |
| 2026-04-15 14:55 | 24.96252 | 46.70450 | 2022 ft | 30 kts | 150° |
| 2026-04-15 14:55 | 24.96154 | 46.70511 | 2026 ft | 0 kts | 150° |
| 2026-04-15 14:55 | 24.96145 | 46.70517 | 2023 ft | 5 kts | 150° |
| 2026-04-15 14:55 | 24.96095 | 46.70549 | 2022 ft | 12 kts | 150° |
| 2026-04-15 14:56 | 24.96009 | 46.70589 | 2029 ft | 13 kts | 179° |
| 2026-04-15 14:56 | 24.95960 | 46.70549 | 2026 ft | 7 kts | 238° |
| 2026-04-15 14:56 | 24.95941 | 46.70516 | 2023 ft | 0 kts | 236° |
| 2026-04-15 14:56 | 24.95939 | 46.70514 | 2027 ft | 0 kts | 236° |